Time;durP1;ratioP1;P1;durP2;ratioP2;P2;SDS_P1;SDS_P2;PMS_P1;PMS_P2;Temp;Humidity;BMP_temperature;BMP_pressure;BME280_temperature;BME280_humidity;BME280_pressure;Samples;Min_cycle;Max_cycle;Signal;HPM_P1;HPM_P2
2021/12/04 00:01:11;;;;;;;58.42;30.15;;;4.60;99.90;;;;;;4927312;29;20498;-59
2021/12/04 00:03:38;;;;;;;57.63;30.33;;;4.70;99.90;;;;;;4926794;29;20048;-56
2021/12/04 00:06:08;;;;;;;65.55;32.10;;;4.70;99.90;;;;;;4927012;29;20069;-59
2021/12/04 00:08:35;;;;;;;63.00;31.42;;;4.60;99.90;;;;;;4911403;29;20051;-60
2021/12/04 00:11:02;;;;;;;52.97;29.20;;;4.70;99.90;;;;;;4908128;29;20458;-60
2021/12/04 00:13:28;;;;;;;60.00;30.73;;;4.60;99.90;;;;;;4928366;29;20136;-60
2021/12/04 00:15:55;;;;;;;61.17;31.30;;;4.60;99.90;;;;;;4923777;29;20051;-60
2021/12/04 00:18:21;;;;;;;62.50;31.52;;;4.60;99.90;;;;;;4919914;29;20058;-59
2021/12/04 00:20:47;;;;;;;62.80;30.95;;;4.70;99.90;;;;;;4927248;29;20040;-58
2021/12/04 00:23:12;;;;;;;60.00;30.90;;;4.60;99.90;;;;;;4924968;29;20403;-53
2021/12/04 00:25:38;;;;;;;67.65;31.50;;;4.60;99.90;;;;;;4904640;29;20059;-58
2021/12/04 00:28:05;;;;;;;61.95;30.55;;;4.60;99.90;;;;;;4906387;29;20039;-59
2021/12/04 00:30:31;;;;;;;66.63;31.88;;;4.60;99.90;;;;;;4924490;29;20504;-60
2021/12/04 00:33:00;;;;;;;76.47;33.72;;;4.60;99.90;;;;;;4923152;29;20328;-59
2021/12/04 00:35:44;;;;;;;76.50;32.47;;;4.60;99.90;;;;;;4925569;29;20128;-55
2021/12/04 00:49:17;;;;;;;83.90;32.67;;;4.60;99.90;;;;;;4926734;29;20052;-60
2021/12/04 00:51:49;;;;;;;84.85;33.03;;;4.60;99.90;;;;;;4926870;29;20130;-57
2021/12/04 00:54:15;;;;;;;75.97;32.53;;;4.60;99.90;;;;;;4926672;29;20565;-59
2021/12/04 00:56:42;;;;;;;77.63;31.98;;;4.60;99.90;;;;;;4927501;29;20479;-59
2021/12/04 00:59:10;;;;;;;85.03;33.28;;;4.60;99.90;;;;;;4923042;29;20131;-60
2021/12/04 01:01:39;;;;;;;79.35;33.45;;;4.60;99.90;;;;;;4902052;29;20077;-55
2021/12/04 01:04:09;;;;;;;78.25;33.05;;;4.60;99.90;;;;;;4917443;29;20514;-59
2021/12/04 01:06:35;;;;;;;71.03;30.63;;;4.60;99.90;;;;;;4905428;29;20047;-60
2021/12/04 01:09:01;;;;;;;74.13;32.05;;;4.60;99.90;;;;;;4922109;29;20522;-59
2021/12/04 01:11:27;;;;;;;74.50;31.48;;;4.60;99.90;;;;;;4905743;29;20403;-59
2021/12/04 01:13:53;;;;;;;75.43;31.83;;;4.60;99.90;;;;;;4905269;29;20058;-58
2021/12/04 01:16:19;;;;;;;74.32;29.85;;;4.60;99.90;;;;;;4923976;29;20098;-60
2021/12/04 01:18:45;;;;;;;77.00;32.08;;;4.60;99.90;;;;;;4904019;29;20055;-59
2021/12/04 01:21:11;;;;;;;79.72;31.70;;;4.60;99.90;;;;;;4924427;29;20376;-60
2021/12/04 01:23:37;;;;;;;82.13;31.95;;;4.60;99.90;;;;;;4921519;29;20044;-60
2021/12/04 01:26:03;;;;;;;80.03;32.03;;;4.50;99.90;;;;;;4920866;29;20454;-56
2021/12/04 01:28:29;;;;;;;76.03;31.80;;;4.60;99.90;;;;;;4923335;29;20047;-58
2021/12/04 01:30:54;;;;;;;89.32;33.13;;;4.60;99.90;;;;;;4905835;29;20047;-59
2021/12/04 01:33:20;;;;;;;85.40;32.78;;;4.60;99.90;;;;;;4915851;29;20051;-59
2021/12/04 01:35:46;;;;;;;76.53;32.40;;;4.60;99.90;;;;;;4903771;29;20540;-60
2021/12/04 01:38:12;;;;;;;106.03;34.38;;;4.60;99.90;;;;;;4923074;29;20055;-55
2021/12/04 01:40:38;;;;;;;77.68;32.70;;;4.60;99.90;;;;;;4903084;29;20131;-59
2021/12/04 01:43:05;;;;;;;81.78;32.15;;;4.50;99.90;;;;;;4926110;29;20139;-58
2021/12/04 01:45:31;;;;;;;83.60;32.78;;;4.60;99.90;;;;;;4908369;29;20047;-60
2021/12/04 01:48:01;;;;;;;87.03;33.22;;;4.50;99.90;;;;;;4925142;29;20144;-55
2021/12/04 01:50:28;;;;;;;76.85;31.98;;;4.50;99.90;;;;;;4923349;29;20138;-59
2021/12/04 01:52:55;;;;;;;81.65;31.48;;;4.60;99.90;;;;;;4922860;29;20082;-59
2021/12/04 01:55:25;;;;;;;81.93;32.85;;;4.60;99.90;;;;;;4920411;29;20138;-59
2021/12/04 01:57:51;;;;;;;77.85;31.08;;;4.50;99.90;;;;;;4922021;29;20086;-59
2021/12/04 02:00:16;;;;;;;87.93;31.58;;;4.50;99.90;;;;;;4905186;29;20534;-59
2021/12/04 02:02:42;;;;;;;79.80;31.17;;;4.50;99.90;;;;;;4922716;29;20067;-55
2021/12/04 02:05:08;;;;;;;82.97;31.42;;;4.50;99.90;;;;;;4920247;29;20047;-59
2021/12/04 02:07:34;;;;;;;79.15;30.95;;;4.50;99.90;;;;;;4921137;29;20118;-59
2021/12/04 02:10:05;;;;;;;79.75;30.92;;;4.50;99.90;;;;;;4922089;29;20427;-59
2021/12/04 02:12:31;;;;;;;89.43;33.25;;;4.50;99.90;;;;;;4921271;29;20099;-59
2021/12/04 02:14:57;;;;;;;87.38;32.15;;;4.50;99.90;;;;;;4921619;29;20200;-54
2021/12/04 02:17:23;;;;;;;86.97;30.98;;;4.50;99.90;;;;;;4908174;29;20131;-59
2021/12/04 02:19:48;;;;;;;82.03;31.75;;;4.50;99.90;;;;;;4908711;29;20847;-57
2021/12/04 02:22:15;;;;;;;88.40;32.15;;;4.50;99.90;;;;;;4928422;29;20040;-59
2021/12/04 02:24:41;;;;;;;79.80;30.90;;;4.50;99.90;;;;;;4906629;29;20213;-59
2021/12/04 02:27:07;;;;;;;88.30;31.65;;;4.50;99.90;;;;;;4925379;29;20047;-58
2021/12/04 02:29:33;;;;;;;78.10;29.55;;;4.50;99.90;;;;;;4924705;29;20130;-59
2021/12/04 02:31:59;;;;;;;89.78;30.77;;;4.50;99.90;;;;;;4926318;29;20190;-56
2021/12/04 02:34:30;;;;;;;82.63;30.85;;;4.50;99.90;;;;;;4925290;29;20158;-59
2021/12/04 02:36:58;;;;;;;96.40;31.63;;;4.50;99.90;;;;;;4924965;29;20043;-60
2021/12/04 02:39:29;;;;;;;86.65;30.77;;;4.50;99.90;;;;;;4925296;29;20115;-54
2021/12/04 02:41:55;;;;;;;88.60;31.38;;;4.50;99.90;;;;;;4927788;29;20059;-57
2021/12/04 02:44:23;;;;;;;91.20;30.77;;;4.50;99.90;;;;;;4924022;29;20079;-59
2021/12/04 02:46:50;;;;;;;99.75;31.13;;;4.50;99.90;;;;;;4910325;29;20056;-60
2021/12/04 02:49:16;;;;;;;101.38;31.60;;;4.50;99.90;;;;;;4929723;29;20051;-60
2021/12/04 02:51:42;;;;;;;91.00;31.13;;;4.50;99.90;;;;;;4915122;29;20115;-59
2021/12/04 02:54:11;;;;;;;98.93;31.73;;;4.50;99.90;;;;;;4928580;29;20055;-58
2021/12/04 02:56:37;;;;;;;83.32;28.90;;;4.50;99.90;;;;;;4928689;29;20050;-59
2021/12/04 02:59:04;;;;;;;95.95;29.58;;;4.50;99.90;;;;;;4927345;29;20489;-59
2021/12/04 03:01:30;;;;;;;83.82;30.48;;;4.50;99.90;;;;;;4928843;29;20047;-59
2021/12/04 03:04:06;;;;;;;89.88;29.95;;;4.40;99.90;;;;;;4927862;29;20040;-59
2021/12/04 03:06:38;;;;;;;83.63;28.98;;;4.40;99.90;;;;;;4926661;29;20063;-60
2021/12/04 03:09:05;;;;;;;82.80;29.35;;;4.40;99.90;;;;;;4937590;28;20049;-59
2021/12/04 03:11:31;;;;;;;83.20;28.17;;;4.40;99.90;;;;;;4926797;29;20075;-55
2021/12/04 03:13:57;;;;;;;75.60;27.80;;;4.40;99.90;;;;;;4927564;29;20131;-59
2021/12/04 03:16:24;;;;;;;67.45;26.58;;;4.40;99.90;;;;;;4921445;29;20099;-59
2021/12/04 03:18:50;;;;;;;78.13;27.27;;;4.50;99.90;;;;;;4907636;29;20043;-59
2021/12/04 03:21:16;;;;;;;76.65;26.88;;;4.40;99.90;;;;;;4925331;28;21418;-57
2021/12/04 03:23:52;;;;;;;77.05;25.95;;;4.40;99.90;;;;;;4925297;29;20039;-59
2021/12/04 03:26:19;;;;;;;69.68;25.73;;;4.40;99.90;;;;;;4924088;29;20044;-54
2021/12/04 03:28:45;;;;;;;80.18;27.40;;;4.40;99.90;;;;;;4910757;29;20138;-58
2021/12/04 03:31:16;;;;;;;75.60;26.88;;;4.40;99.90;;;;;;4922992;29;20382;-59
2021/12/04 03:41:55;;;;;;;86.25;28.55;;;4.40;99.90;;;;;;4926311;29;20043;-59
2021/12/04 03:44:21;;;;;;;92.80;28.38;;;4.40;99.90;;;;;;4924141;29;20058;-59
2021/12/04 03:46:48;;;;;;;77.75;27.25;;;4.40;99.90;;;;;;4921837;29;20043;-54
2021/12/04 03:49:14;;;;;;;71.90;25.58;;;4.40;99.90;;;;;;4923855;29;20044;-60
2021/12/04 03:51:40;;;;;;;73.82;26.55;;;4.40;99.90;;;;;;4925276;29;20064;-60
2021/12/04 03:54:06;;;;;;;70.95;26.85;;;4.40;99.90;;;;;;4924900;29;20066;-56
2021/12/04 03:56:32;;;;;;;74.90;26.35;;;4.40;99.90;;;;;;4907592;29;20052;-59
2021/12/04 03:58:58;;;;;;;70.10;26.00;;;4.40;99.90;;;;;;4909189;29;20415;-59
2021/12/04 04:01:24;;;;;;;61.28;23.50;;;4.40;99.90;;;;;;4905983;29;20043;-59
2021/12/04 04:03:50;;;;;;;71.22;25.25;;;4.40;99.90;;;;;;4922514;29;20036;-57
2021/12/04 04:06:16;;;;;;;63.13;24.05;;;4.40;99.90;;;;;;4924386;29;20126;-60
2021/12/04 04:08:42;;;;;;;69.72;23.83;;;4.40;99.90;;;;;;4923179;29;20471;-60
2021/12/04 04:11:08;;;;;;;63.72;23.10;;;4.40;99.90;;;;;;4924706;29;20056;-59
2021/12/04 04:13:34;;;;;;;66.88;23.40;;;4.40;99.90;;;;;;4923564;29;20137;-57
2021/12/04 04:16:01;;;;;;;62.58;23.48;;;4.40;99.90;;;;;;4906788;29;20127;-59
2021/12/04 04:18:30;;;;;;;58.85;23.40;;;4.40;99.90;;;;;;4922488;29;20428;-59
2021/12/04 04:20:56;;;;;;;64.85;22.85;;;4.40;99.90;;;;;;4925134;29;20442;-59
2021/12/04 04:23:22;;;;;;;65.72;23.80;;;4.40;99.90;;;;;;4905752;29;20047;-60
2021/12/04 04:25:48;;;;;;;61.40;22.45;;;4.40;99.90;;;;;;4921962;29;20131;-59
2021/12/04 04:28:13;;;;;;;57.05;21.83;;;4.40;99.90;;;;;;4925619;29;20059;-57
2021/12/04 04:30:39;;;;;;;50.92;21.20;;;4.40;99.90;;;;;;4924149;29;20091;-59
2021/12/04 04:33:06;;;;;;;57.88;22.27;;;4.40;99.90;;;;;;4906591;29;20055;-58
2021/12/04 04:35:33;;;;;;;65.13;22.10;;;4.40;99.90;;;;;;4921353;29;20146;-59
2021/12/04 05:13:22;;;;;;;59.97;20.38;;;4.30;99.90;;;;;;4922015;29;20036;-59
2021/12/04 05:18:23;;;;;;;57.90;20.42;;;4.30;99.90;;;;;;4924459;29;20555;-58
2021/12/04 05:21:08;;;;;;;49.03;20.65;;;4.30;99.90;;;;;;4906227;29;20048;-56
2021/12/04 05:23:47;;;;;;;50.50;19.90;;;4.30;99.90;;;;;;4923032;29;20054;-57
2021/12/04 05:26:20;;;;;;;70.93;22.83;;;4.30;99.90;;;;;;4919262;29;20048;-59
2021/12/04 05:28:47;;;;;;;51.60;21.15;;;4.30;99.90;;;;;;4924105;29;20052;-59
2021/12/04 05:31:13;;;;;;;56.22;21.25;;;4.30;99.90;;;;;;4906116;29;20048;-59
2021/12/04 05:33:40;;;;;;;59.13;20.02;;;4.30;99.90;;;;;;4923577;29;20069;-56
2021/12/04 05:36:07;;;;;;;47.95;20.65;;;4.30;99.90;;;;;;4922398;29;20443;-59
2021/12/04 05:38:33;;;;;;;56.95;20.48;;;4.30;99.90;;;;;;4921393;29;20162;-56
2021/12/04 05:40:59;;;;;;;46.10;20.52;;;4.30;99.90;;;;;;4922702;29;20039;-59
2021/12/04 05:43:26;;;;;;;49.97;20.23;;;4.30;99.90;;;;;;4917019;29;20107;-58
2021/12/04 05:46:03;;;;;;;43.85;18.90;;;4.30;99.90;;;;;;4921741;29;20048;-60
2021/12/04 05:48:40;;;;;;;51.58;19.83;;;4.40;99.90;;;;;;4923102;29;20476;-58
2021/12/04 05:56:17;;;;;;;43.17;19.52;;;4.30;99.90;;;;;;4923486;29;20055;-54
2021/12/04 05:58:43;;;;;;;51.63;19.30;;;4.30;99.90;;;;;;4906576;29;20047;-59
2021/12/04 06:01:09;;;;;;;42.78;18.70;;;4.30;99.90;;;;;;4928275;29;20078;-59
2021/12/04 06:03:35;;;;;;;48.38;18.92;;;4.30;99.90;;;;;;4903815;29;20483;-59
2021/12/04 06:06:03;;;;;;;41.58;18.90;;;4.30;99.90;;;;;;4926249;29;20188;-59
2021/12/04 06:08:29;;;;;;;43.10;18.63;;;4.30;99.90;;;;;;4924020;29;20048;-58
2021/12/04 06:10:57;;;;;;;44.25;18.75;;;4.30;99.90;;;;;;4924726;29;20087;-57
2021/12/04 06:13:23;;;;;;;45.95;18.02;;;4.30;99.90;;;;;;4928010;29;20059;-59
2021/12/04 06:15:50;;;;;;;49.90;18.95;;;4.30;99.90;;;;;;4927318;29;20055;-56
2021/12/04 06:18:16;;;;;;;42.63;18.50;;;4.40;99.90;;;;;;4926953;29;20048;-59
2021/12/04 06:23:29;;;;;;;44.35;18.55;;;4.30;99.90;;;;;;4929216;29;20451;-59
2021/12/04 06:25:55;;;;;;;44.47;18.15;;;4.30;99.90;;;;;;4927275;29;20107;-56
2021/12/04 06:28:21;;;;;;;45.75;19.38;;;4.30;99.90;;;;;;4927603;29;20058;-60
2021/12/04 06:30:47;;;;;;;42.80;18.80;;;4.30;99.90;;;;;;4918468;29;20402;-60
2021/12/04 06:33:17;;;;;;;53.92;19.60;;;4.30;99.90;;;;;;4927288;29;20443;-58
2021/12/04 06:35:46;;;;;;;43.55;18.92;;;4.30;99.90;;;;;;4926619;29;20054;-59
2021/12/04 06:38:13;;;;;;;43.35;17.95;;;4.30;99.90;;;;;;4910295;29;20081;-54
2021/12/04 06:40:39;;;;;;;48.15;19.30;;;4.30;99.90;;;;;;4901685;29;20044;-59
2021/12/04 06:43:06;;;;;;;48.60;19.30;;;4.40;99.90;;;;;;4908951;29;20052;-59
2021/12/04 06:45:34;;;;;;;41.50;18.60;;;4.30;99.90;;;;;;4905714;29;20070;-57
2021/12/04 06:48:26;;;;;;;44.72;18.95;;;4.30;99.90;;;;;;4904952;29;20142;-58
2021/12/04 06:50:59;;;;;;;46.22;18.60;;;4.40;99.90;;;;;;4921935;29;20448;-59
2021/12/04 06:53:38;;;;;;;43.97;18.05;;;4.30;99.90;;;;;;4887130;29;20067;-57
2021/12/04 06:56:07;;;;;;;47.97;18.80;;;4.30;99.90;;;;;;4904217;29;20054;-59
2021/12/04 06:58:33;;;;;;;46.15;17.75;;;4.30;99.90;;;;;;4887673;29;20551;-58
2021/12/04 07:00:59;;;;;;;50.58;19.17;;;4.30;99.90;;;;;;4906306;29;20048;-57
2021/12/04 07:03:25;;;;;;;49.42;19.83;;;4.30;99.90;;;;;;4905732;29;20506;-56
2021/12/04 07:05:51;;;;;;;46.58;18.13;;;4.30;99.90;;;;;;4884883;29;20063;-60
2021/12/04 07:08:17;;;;;;;51.30;19.75;;;4.30;99.90;;;;;;4892620;29;20103;-59
2021/12/04 07:10:43;;;;;;;57.78;20.17;;;4.30;99.90;;;;;;4888785;29;20044;-55
2021/12/04 07:13:09;;;;;;;58.58;21.08;;;4.30;99.90;;;;;;4910034;29;20127;-58
2021/12/04 07:15:35;;;;;;;58.67;20.50;;;4.30;99.90;;;;;;4909168;29;20032;-60
2021/12/04 07:18:02;;;;;;;56.83;21.95;;;4.30;99.90;;;;;;4910221;29;20066;-56
2021/12/04 07:20:29;;;;;;;58.08;20.52;;;4.30;99.90;;;;;;4910290;29;20098;-59
2021/12/04 07:22:56;;;;;;;55.72;20.25;;;4.30;99.90;;;;;;4908876;29;20135;-59
2021/12/04 07:25:22;;;;;;;57.13;21.02;;;4.20;99.90;;;;;;4909207;29;20048;-59
2021/12/04 07:27:50;;;;;;;57.45;20.60;;;4.30;99.90;;;;;;4908963;29;20563;-60
2021/12/04 07:30:18;;;;;;;51.70;19.95;;;4.30;99.90;;;;;;4909598;29;20054;-59
2021/12/04 07:32:45;;;;;;;55.72;19.63;;;4.30;99.90;;;;;;4893965;29;20123;-57
2021/12/04 07:35:11;;;;;;;56.88;20.70;;;4.20;99.90;;;;;;4907932;29;20050;-57
2021/12/04 07:37:37;;;;;;;54.00;20.30;;;4.30;99.90;;;;;;4910201;29;20044;-56
2021/12/04 07:40:04;;;;;;;55.05;19.92;;;4.30;99.90;;;;;;4910090;29;20040;-60
2021/12/04 07:42:30;;;;;;;54.20;19.33;;;4.20;99.90;;;;;;4909262;29;20886;-59
2021/12/04 07:44:55;;;;;;;52.85;20.00;;;4.30;99.90;;;;;;4909208;29;20059;-59
2021/12/04 07:47:21;;;;;;;51.90;20.15;;;4.30;99.90;;;;;;4908581;29;20052;-59
2021/12/04 07:49:47;;;;;;;53.80;20.13;;;4.30;99.90;;;;;;4908923;29;20084;-57
2021/12/04 07:52:13;;;;;;;60.20;20.30;;;4.20;99.90;;;;;;4919824;29;20059;-58
2021/12/04 07:54:39;;;;;;;53.97;20.40;;;4.30;99.90;;;;;;4926843;29;20079;-59
2021/12/04 07:57:05;;;;;;;51.97;19.40;;;4.30;99.90;;;;;;4912013;29;20047;-59
2021/12/04 07:59:31;;;;;;;65.53;20.55;;;4.20;99.90;;;;;;4908541;29;20063;-57
2021/12/04 08:01:57;;;;;;;50.75;19.77;;;4.20;99.90;;;;;;4927197;29;20137;-59
2021/12/04 08:04:24;;;;;;;55.83;20.38;;;4.20;99.90;;;;;;4927242;29;20039;-58
2021/12/04 08:06:51;;;;;;;49.40;20.05;;;4.30;99.90;;;;;;4928501;29;20048;-57
2021/12/04 08:09:18;;;;;;;46.65;19.92;;;4.20;99.90;;;;;;4928281;29;20048;-59
2021/12/04 08:11:44;;;;;;;56.22;19.77;;;4.30;99.90;;;;;;4928574;29;20119;-55
2021/12/04 08:14:10;;;;;;;50.28;19.13;;;4.30;99.90;;;;;;4928640;29;20081;-59
2021/12/04 08:16:36;;;;;;;55.47;21.23;;;4.30;99.90;;;;;;4927511;29;20054;-58
2021/12/04 08:19:03;;;;;;;54.45;21.23;;;4.30;99.90;;;;;;4928235;29;20054;-60
2021/12/04 08:21:29;;;;;;;66.35;20.77;;;4.30;99.90;;;;;;4927262;29;20043;-59
2021/12/04 08:23:55;;;;;;;58.58;19.90;;;4.30;99.90;;;;;;4927092;29;20048;-59
2021/12/04 08:26:21;;;;;;;59.97;20.95;;;4.40;99.90;;;;;;4926941;29;20079;-59
2021/12/04 08:28:48;;;;;;;52.92;18.90;;;4.30;99.90;;;;;;4911324;29;20047;-54
2021/12/04 08:31:14;;;;;;;51.55;18.90;;;4.30;99.90;;;;;;4929420;29;20039;-59
2021/12/04 08:33:40;;;;;;;55.95;18.63;;;4.30;99.90;;;;;;4910200;29;20099;-59
2021/12/04 08:36:06;;;;;;;53.30;19.58;;;4.30;99.90;;;;;;4928265;29;20043;-59
2021/12/04 08:38:33;;;;;;;54.83;19.73;;;4.30;99.90;;;;;;4911089;29;20050;-60
2021/12/04 08:41:03;;;;;;;47.08;19.48;;;4.30;99.90;;;;;;4910160;29;20047;-59
2021/12/04 08:43:30;;;;;;;49.90;20.48;;;4.40;99.90;;;;;;4928101;29;20050;-59
2021/12/04 08:46:00;;;;;;;43.53;18.73;;;4.40;99.90;;;;;;4926779;29;20111;-60
2021/12/04 08:48:26;;;;;;;47.40;19.05;;;4.40;99.90;;;;;;4928292;29;20047;-54
2021/12/04 08:50:52;;;;;;;42.15;18.38;;;4.40;99.90;;;;;;4927593;29;20503;-57
2021/12/04 08:53:18;;;;;;;45.13;18.83;;;4.40;99.90;;;;;;4909956;29;20052;-59
2021/12/04 08:55:45;;;;;;;47.58;18.77;;;4.40;99.90;;;;;;4926872;29;20635;-60
2021/12/04 08:58:13;;;;;;;41.72;17.20;;;4.40;99.90;;;;;;4928022;29;20142;-56
2021/12/04 09:00:49;;;;;;;43.90;17.92;;;4.40;99.90;;;;;;4909273;29;20067;-55
2021/12/04 09:03:18;;;;;;;41.17;17.77;;;4.40;99.90;;;;;;4925797;29;20039;-58
2021/12/04 09:05:44;;;;;;;40.40;17.80;;;4.40;99.90;;;;;;4927522;29;20043;-56
2021/12/04 09:08:11;;;;;;;39.03;16.33;;;4.40;99.90;;;;;;4895342;29;20079;-59
2021/12/04 09:10:41;;;;;;;40.25;16.67;;;4.40;99.90;;;;;;4910307;29;20056;-59
2021/12/04 09:13:07;;;;;;;34.80;15.90;;;4.40;99.90;;;;;;4927418;29;20048;-60
2021/12/04 09:15:35;;;;;;;32.20;16.10;;;4.40;99.90;;;;;;4926553;29;20081;-59
2021/12/04 09:18:00;;;;;;;37.88;17.10;;;4.40;99.90;;;;;;4909740;29;20581;-60
2021/12/04 09:20:28;;;;;;;35.65;15.98;;;4.40;99.90;;;;;;4924130;29;20051;-60
2021/12/04 09:22:55;;;;;;;31.10;15.18;;;4.40;99.90;;;;;;4922622;29;20035;-58
2021/12/04 09:25:23;;;;;;;37.78;15.80;;;4.40;99.90;;;;;;4925939;29;20099;-56
2021/12/04 09:28:03;;;;;;;36.95;15.27;;;4.40;99.90;;;;;;4927066;29;20048;-59
2021/12/04 09:59:15;;;;;;;29.15;13.68;;;4.50;99.90;;;;;;4925049;29;20048;-56
2021/12/04 10:00:30;;;;;;;20.47;10.97;;;4.60;99.90;;;;;;4924803;29;20047;-59
2021/12/04 10:06:18;;;;;;;20.58;11.32;;;4.60;99.90;;;;;;4922247;29;20047;-56
2021/12/04 10:20:11;;;;;;;23.75;12.65;;;4.70;99.90;;;;;;4904451;29;20058;-56
2021/12/04 10:23:25;;;;;;;20.05;12.80;;;4.70;99.90;;;;;;4922795;29;20512;-59
2021/12/04 10:34:28;;;;;;;21.20;12.82;;;4.70;99.90;;;;;;4921956;29;20059;-59
2021/12/04 10:37:03;;;;;;;20.05;12.30;;;4.80;99.90;;;;;;4921784;29;20044;-59
2021/12/04 10:39:29;;;;;;;18.70;12.55;;;4.70;99.90;;;;;;4905485;29;20057;-59
2021/12/04 10:41:55;;;;;;;17.25;11.77;;;4.80;99.90;;;;;;4920184;29;20640;-58
2021/12/04 10:44:25;;;;;;;17.92;12.27;;;4.80;99.90;;;;;;4877639;29;20042;-58
2021/12/04 10:46:59;;;;;;;18.95;12.68;;;4.90;99.90;;;;;;4918523;29;20670;-59
2021/12/04 10:49:52;;;;;;;17.42;11.30;;;4.90;99.90;;;;;;4910791;29;20106;-59
2021/12/04 10:55:47;;;;;;;18.27;11.75;;;5.00;99.90;;;;;;4911566;29;20119;-59
2021/12/04 11:03:38;;;;;;;18.58;12.13;;;5.00;99.90;;;;;;4927311;29;20050;-58
2021/12/04 11:42:54;;;;;;;19.25;11.23;;;5.20;99.90;;;;;;4921705;29;20050;-57
2021/12/04 11:45:26;;;;;;;16.77;10.82;;;5.20;99.90;;;;;;4911402;29;20048;-56
2021/12/04 11:48:03;;;;;;;19.48;11.85;;;5.10;99.90;;;;;;4901965;29;20109;-59
2021/12/04 11:50:32;;;;;;;19.80;11.35;;;5.20;99.90;;;;;;4921904;29;20464;-59
2021/12/04 11:53:09;;;;;;;18.33;11.73;;;5.20;99.90;;;;;;4894374;29;20067;-57
2021/12/04 11:55:38;;;;;;;19.00;11.50;;;5.20;99.90;;;;;;4898620;29;20518;-58
2021/12/04 11:58:19;;;;;;;15.98;11.30;;;5.30;99.90;;;;;;4921872;29;20052;-58
2021/12/04 12:00:46;;;;;;;17.95;11.43;;;5.30;99.90;;;;;;4925157;29;20134;-59
2021/12/04 12:03:22;;;;;;;19.45;11.40;;;5.20;99.90;;;;;;4925576;29;20439;-60
2021/12/04 12:06:00;;;;;;;18.48;11.93;;;5.20;99.90;;;;;;4918753;29;20047;-58
2021/12/04 12:08:28;;;;;;;17.15;11.23;;;5.20;99.90;;;;;;4922813;29;20051;-59
2021/12/04 12:11:10;;;;;;;17.55;10.88;;;5.20;99.90;;;;;;4922394;29;20047;-59
2021/12/04 12:13:44;;;;;;;16.83;10.80;;;5.20;99.90;;;;;;4924460;29;20103;-59
2021/12/04 12:16:20;;;;;;;18.70;11.82;;;5.20;99.90;;;;;;4920664;29;20509;-58
2021/12/04 12:18:57;;;;;;;20.02;11.40;;;5.30;99.90;;;;;;4902422;29;20052;-58
2021/12/04 12:21:39;;;;;;;21.55;11.45;;;5.20;99.90;;;;;;4921890;29;20073;-55
2021/12/04 12:27:15;;;;;;;;;;;5.20;99.90;;;;;;4919201;29;20086;-58
2021/12/04 12:33:21;;;;;;;19.67;12.52;;;5.20;99.90;;;;;;4919935;29;20138;-57
2021/12/04 12:36:10;;;;;;;22.05;12.95;;;5.30;99.90;;;;;;4921883;29;20106;-59
2021/12/04 12:38:53;;;;;;;21.73;12.55;;;5.30;99.90;;;;;;4922619;29;20043;-59
2021/12/04 12:41:31;;;;;;;;;;;5.30;99.90;;;;;;4920029;29;20073;-58
2021/12/04 12:44:06;;;;;;;21.27;12.32;;;5.30;99.90;;;;;;4921648;28;19926;-59
2021/12/04 12:46:41;;;;;;;22.90;13.02;;;5.40;99.90;;;;;;4919931;28;20047;-58
2021/12/04 12:49:39;;;;;;;24.13;13.95;;;5.40;99.90;;;;;;4923080;29;20051;-58
2021/12/04 12:52:22;;;;;;;23.42;12.98;;;5.40;99.90;;;;;;4906081;29;20056;-55
2021/12/04 12:54:58;;;;;;;23.80;13.60;;;5.40;99.90;;;;;;4925996;29;20055;-59
2021/12/04 12:57:43;;;;;;;24.20;13.48;;;5.40;99.90;;;;;;4942245;29;20043;-59
2021/12/04 13:11:53;;;;;;;26.25;15.23;;;5.30;99.90;;;;;;4925664;29;20149;-52
2021/12/04 13:14:41;;;;;;;25.85;14.23;;;5.30;99.90;;;;;;4927166;29;20051;-59
2021/12/04 13:17:17;;;;;;;26.77;15.25;;;5.30;99.90;;;;;;4926674;29;20166;-58
2021/12/04 13:19:48;;;;;;;28.58;15.30;;;5.30;99.90;;;;;;4925190;29;20099;-59
2021/12/04 13:22:27;;;;;;;30.75;16.90;;;5.30;99.90;;;;;;4920601;28;20506;-59
2021/12/04 13:24:55;;;;;;;31.75;16.83;;;5.30;99.90;;;;;;4925313;29;20419;-59
2021/12/04 13:29:53;;;;;;;29.92;16.65;;;5.20;99.90;;;;;;4926195;29;20455;-58
2021/12/04 13:32:33;;;;;;;33.80;17.58;;;5.20;99.90;;;;;;4927408;29;20047;-59
2021/12/04 13:35:12;;;;;;;36.58;18.25;;;5.20;99.90;;;;;;4925081;29;20048;-55
2021/12/04 13:37:39;;;;;;;36.13;17.02;;;5.20;99.90;;;;;;4925353;29;20075;-57
2021/12/04 13:40:11;;;;;;;32.42;16.48;;;5.30;99.90;;;;;;4926890;29;20175;-59
2021/12/04 13:42:38;;;;;;;33.10;16.73;;;5.20;99.90;;;;;;4921412;29;20525;-59
2021/12/04 13:45:08;;;;;;;37.92;18.85;;;5.20;99.90;;;;;;4925269;29;20050;-58
2021/12/04 13:47:34;;;;;;;34.70;18.42;;;5.20;99.90;;;;;;4925331;28;20554;-58
2021/12/04 13:50:08;;;;;;;38.53;18.48;;;5.20;99.90;;;;;;4926203;29;20042;-58
2021/12/04 13:52:34;;;;;;;35.17;18.27;;;5.30;99.90;;;;;;4923537;29;20422;-59
2021/12/04 13:55:06;;;;;;;38.33;19.20;;;5.20;99.90;;;;;;4907154;29;20055;-59
2021/12/04 13:57:37;;;;;;;36.97;18.63;;;5.20;99.90;;;;;;4907256;29;20119;-58
2021/12/04 14:00:04;;;;;;;39.00;18.48;;;5.20;99.90;;;;;;4916175;29;20040;-59
2021/12/04 14:02:31;;;;;;;41.30;18.90;;;5.20;99.90;;;;;;4907256;29;20040;-58
2021/12/04 14:05:04;;;;;;;36.00;18.27;;;5.20;99.90;;;;;;4924474;29;20083;-59
2021/12/04 14:07:30;;;;;;;;;;;5.20;99.90;;;;;;4927462;29;20604;-59
2021/12/04 14:09:56;;;;;;;41.88;19.40;;;5.20;99.90;;;;;;4926858;29;19919;-58
2021/12/04 14:12:22;;;;;;;38.13;18.77;;;5.20;99.90;;;;;;4925629;29;20106;-59
2021/12/04 14:14:48;;;;;;;43.20;20.90;;;5.20;99.90;;;;;;4907444;29;20048;-55
2021/12/04 14:17:17;;;;;;;37.83;19.75;;;5.20;99.90;;;;;;4924172;29;20047;-58
2021/12/04 14:19:44;;;;;;;46.15;20.92;;;5.20;99.90;;;;;;4927485;29;20047;-60
2021/12/04 14:22:16;;;;;;;42.38;20.45;;;5.20;99.90;;;;;;4910825;29;20047;-57
2021/12/04 14:24:50;;;;;;;41.03;20.35;;;5.20;99.90;;;;;;4926073;29;22359;-58
2021/12/04 14:27:25;;;;;;;44.88;21.15;;;5.20;99.90;;;;;;4929559;29;20483;-59
2021/12/04 14:30:07;;;;;;;41.08;20.25;;;5.20;99.90;;;;;;4928969;29;20079;-54
2021/12/04 14:32:34;;;;;;;46.95;20.38;;;5.30;99.90;;;;;;4897428;29;20047;-60
2021/12/04 14:35:15;;;;;;;44.58;20.52;;;5.20;99.90;;;;;;4929258;29;20336;-59
2021/12/04 14:37:45;;;;;;;46.58;20.45;;;5.20;99.90;;;;;;4927213;29;20055;-59
2021/12/04 14:40:14;;;;;;;46.22;20.92;;;5.20;99.90;;;;;;4905401;29;20119;-58
2021/12/04 14:42:41;;;;;;;43.72;20.75;;;5.20;99.90;;;;;;4927818;29;20071;-55
2021/12/04 14:45:14;;;;;;;42.20;20.35;;;5.20;99.90;;;;;;4921601;29;20318;-58
2021/12/04 14:47:45;;;;;;;44.10;20.42;;;5.20;99.90;;;;;;4926645;29;20052;-59
2021/12/04 14:50:14;;;;;;;42.03;20.27;;;5.20;99.90;;;;;;4930746;29;20058;-58
2021/12/04 14:52:41;;;;;;;45.50;20.77;;;5.20;99.90;;;;;;4927025;29;20159;-59
2021/12/04 14:55:19;;;;;;;51.22;21.50;;;5.20;99.90;;;;;;4928826;29;20547;-59
2021/12/04 14:57:45;;;;;;;48.45;21.52;;;5.20;99.90;;;;;;4928423;29;20499;-53
2021/12/04 15:00:29;;;;;;;48.08;21.23;;;5.20;99.90;;;;;;4929313;29;20462;-59
2021/12/04 15:03:02;;;;;;;45.28;20.38;;;5.20;99.90;;;;;;4927987;29;20567;-57
2021/12/04 15:05:37;;;;;;;50.08;21.00;;;5.20;99.90;;;;;;4928826;29;20055;-58
2021/12/04 15:08:09;;;;;;;48.28;22.50;;;5.20;99.90;;;;;;4920339;29;21014;-59
2021/12/04 15:10:36;;;;;;;45.95;21.35;;;5.20;99.90;;;;;;4928083;29;20051;-59
2021/12/04 15:13:05;;;;;;;50.10;22.20;;;5.20;99.90;;;;;;4929328;29;20051;-59
2021/12/04 15:15:36;;;;;;;49.72;21.73;;;5.20;99.90;;;;;;4924926;29;20055;-58
2021/12/04 15:18:12;;;;;;;51.53;22.75;;;5.20;99.90;;;;;;4925062;29;20071;-56
2021/12/04 15:20:45;;;;;;;55.53;23.23;;;5.10;99.90;;;;;;4924496;29;20479;-59
2021/12/04 15:23:16;;;;;;;58.70;23.42;;;5.10;99.90;;;;;;4916775;29;20178;-54
2021/12/04 15:25:45;;;;;;;57.67;24.55;;;5.20;99.90;;;;;;4916169;29;20381;-55
2021/12/04 15:28:19;;;;;;;61.08;25.67;;;5.20;99.90;;;;;;4913472;29;20058;-53
2021/12/04 15:30:51;;;;;;;62.85;25.75;;;5.10;99.90;;;;;;4899735;29;20731;-54
2021/12/04 15:33:41;;;;;;;62.50;26.70;;;5.10;99.90;;;;;;4929603;29;20550;-58
2021/12/04 15:36:18;;;;;;;68.22;27.42;;;5.10;99.90;;;;;;4928854;29;20060;-60
2021/12/04 15:38:50;;;;;;;64.43;25.77;;;5.10;99.90;;;;;;4925443;29;20131;-58
2021/12/04 15:47:04;;;;;;;77.47;28.00;;;5.10;99.90;;;;;;4927171;29;20518;-59
2021/12/04 15:55:18;;;;;;;71.07;27.33;;;5.10;99.90;;;;;;4925963;29;20056;-58
2021/12/04 15:57:59;;;;;;;65.72;26.92;;;5.10;99.90;;;;;;4927555;29;20163;-58
2021/12/04 16:00:30;;;;;;;67.05;26.33;;;5.10;99.90;;;;;;4927204;29;20043;-59
2021/12/04 16:03:01;;;;;;;60.15;26.42;;;5.10;99.90;;;;;;4921503;29;20075;-58